Time;durP1;ratioP1;P1;durP2;ratioP2;P2;SDS_P1;SDS_P2;PMS_P1;PMS_P2;Temp;Humidity;BMP_temperature;BMP_pressure;BME280_temperature;BME280_humidity;BME280_pressure;Samples;Min_cycle;Max_cycle;Signal;HPM_P1;HPM_P2
2021/12/08 00:02:19;;;;;;;4.13;3.00;;;2.80;99.90;;;;;;4880517;29;20211;-75
2021/12/08 00:04:45;;;;;;;5.40;3.80;;;2.90;99.90;;;;;;4879857;29;20271;-76
2021/12/08 00:07:11;;;;;;;5.33;3.70;;;2.90;99.90;;;;;;4879375;29;20245;-76
2021/12/08 00:14:54;;;;;;;13.77;4.70;;;3.00;99.90;;;;;;4879792;29;20482;-76
2021/12/08 00:17:19;;;;;;;12.10;5.10;;;3.10;99.90;;;;;;4879926;29;20457;-76
2021/12/08 00:19:45;;;;;;;10.87;4.90;;;3.10;99.90;;;;;;4879680;29;20192;-76
2021/12/08 00:22:11;;;;;;;9.50;4.87;;;3.10;99.90;;;;;;4879547;29;20207;-76
2021/12/08 00:24:36;;;;;;;13.23;5.47;;;3.10;99.90;;;;;;4879362;29;20611;-76
2021/12/08 00:27:02;;;;;;;14.03;5.30;;;3.10;99.90;;;;;;4879698;29;20195;-76
2021/12/08 00:29:28;;;;;;;6.07;3.07;;;3.10;99.90;;;;;;4879666;29;20608;-76
2021/12/08 00:31:53;;;;;;;4.43;2.30;;;3.10;99.90;;;;;;4879428;29;20461;-77
2021/12/08 00:34:19;;;;;;;3.30;2.30;;;3.10;99.90;;;;;;4879604;29;20192;-76
2021/12/08 00:36:45;;;;;;;3.40;1.67;;;3.20;99.90;;;;;;4879391;29;20208;-75
2021/12/08 00:39:12;;;;;;;2.70;1.60;;;3.20;99.90;;;;;;4879297;29;20184;-76
2021/12/08 00:41:38;;;;;;;1.77;1.67;;;3.20;99.90;;;;;;4877958;29;20453;-76
2021/12/08 00:44:05;;;;;;;4.27;2.40;;;3.20;99.90;;;;;;4878993;29;21025;-76
2021/12/08 00:46:31;;;;;;;4.83;2.43;;;3.20;99.90;;;;;;4879249;29;20425;-76
2021/12/08 00:48:56;;;;;;;2.80;2.47;;;3.20;99.90;;;;;;4879059;29;20433;-76
2021/12/08 00:51:22;;;;;;;3.40;1.77;;;3.20;99.90;;;;;;4878943;29;20210;-76
2021/12/08 00:53:48;;;;;;;4.27;2.60;;;3.20;99.90;;;;;;4878925;29;20555;-76
2021/12/08 00:56:14;;;;;;;2.87;2.67;;;3.20;99.90;;;;;;4878875;29;20219;-76
2021/12/08 00:58:41;;;;;;;2.57;1.77;;;3.20;99.90;;;;;;4878838;29;20436;-75
2021/12/08 05:32:56;;;;;;;7.73;4.57;;;3.90;99.90;;;;;;4911103;23;20508;-76
2021/12/08 05:35:23;;;;;;;3.50;3.17;;;3.90;99.90;;;;;;4896351;29;20991;-76
2021/12/08 05:37:52;;;;;;;4.30;3.90;;;3.90;99.90;;;;;;4896868;29;20985;-75
2021/12/08 05:40:23;;;;;;;5.40;3.87;;;3.90;99.90;;;;;;4896600;29;20454;-76
2021/12/08 05:42:49;;;;;;;5.40;4.50;;;4.00;99.90;;;;;;4896605;29;20440;-75
2021/12/08 05:45:18;;;;;;;4.70;4.30;;;4.00;99.90;;;;;;4895709;29;20437;-74
2021/12/08 05:47:46;;;;;;;5.50;4.10;;;4.00;99.90;;;;;;4880500;29;20193;-74
2021/12/08 05:50:17;;;;;;;4.93;4.43;;;4.00;99.90;;;;;;4878020;29;20412;-74
2021/12/08 05:52:43;;;;;;;5.27;4.27;;;4.00;99.90;;;;;;4877974;29;20440;-74
2021/12/08 05:55:10;;;;;;;8.27;3.93;;;4.10;99.90;;;;;;4877757;29;20400;-75
2021/12/08 05:57:39;;;;;;;5.70;4.43;;;4.10;99.90;;;;;;4878183;29;20181;-75
2021/12/08 06:00:10;;;;;;;5.67;4.27;;;4.20;99.90;;;;;;4877873;29;20430;-75
2021/12/08 06:02:37;;;;;;;11.00;4.80;;;4.30;99.90;;;;;;4876418;29;20457;-75
2021/12/08 06:05:06;;;;;;;7.57;4.77;;;4.30;99.90;;;;;;4877318;29;20417;-75
2021/12/08 06:07:32;;;;;;;6.60;4.50;;;4.20;99.90;;;;;;4877725;29;20421;-75
2021/12/08 06:10:01;;;;;;;8.80;6.30;;;4.30;99.90;;;;;;4877843;29;20426;-75
2021/12/08 06:12:27;;;;;;;5.00;4.70;;;4.20;99.90;;;;;;4877884;29;20209;-75
2021/12/08 06:14:55;;;;;;;9.57;5.20;;;4.20;99.90;;;;;;4878095;29;20425;-75
2021/12/08 06:17:26;;;;;;;13.67;5.73;;;4.20;99.90;;;;;;4877755;29;20430;-73
2021/12/08 06:19:52;;;;;;;7.27;6.57;;;4.10;99.90;;;;;;4877889;29;20419;-75
2021/12/08 06:22:21;;;;;;;8.10;5.60;;;4.20;99.90;;;;;;4877781;29;20433;-76
2021/12/08 06:24:47;;;;;;;8.37;5.70;;;4.10;99.90;;;;;;4877354;29;20482;-75
2021/12/08 06:27:14;;;;;;;10.70;6.30;;;4.10;99.90;;;;;;4877652;29;20454;-75
2021/12/08 06:29:40;;;;;;;7.87;5.20;;;4.10;99.90;;;;;;4877673;29;20430;-75
2021/12/08 06:32:09;;;;;;;6.73;5.97;;;4.10;99.90;;;;;;4877433;29;20535;-75
2021/12/08 06:34:36;;;;;;;6.73;5.70;;;4.10;99.90;;;;;;4877691;29;20431;-75
2021/12/08 06:37:14;;;;;;;6.13;5.53;;;4.10;99.90;;;;;;4877772;29;20573;-75
2021/12/08 06:39:52;;;;;;;7.57;5.33;;;4.10;99.90;;;;;;4877895;29;20440;-76
2021/12/08 06:42:23;;;;;;;8.80;5.60;;;4.10;99.90;;;;;;4878134;29;20440;-75
2021/12/08 06:44:52;;;;;;;6.57;5.50;;;4.10;99.90;;;;;;4877722;29;20422;-74
2021/12/08 06:47:21;;;;;;;8.07;5.47;;;4.20;99.90;;;;;;4877502;29;20432;-75
2021/12/08 06:49:50;;;;;;;6.30;5.10;;;4.20;99.90;;;;;;4876434;29;20407;-76
2021/12/08 06:52:22;;;;;;;6.70;5.00;;;4.20;99.90;;;;;;4877357;29;20792;-76
2021/12/08 06:54:55;;;;;;;7.37;5.40;;;4.20;99.90;;;;;;4877492;29;20425;-76
2021/12/08 06:57:30;;;;;;;7.87;4.77;;;4.20;99.90;;;;;;4877457;29;20441;-75
2021/12/08 07:00:22;;;;;;;7.80;5.10;;;4.20;99.90;;;;;;4877485;29;20421;-72
2021/12/08 07:05:26;;;;;;;5.50;5.00;;;4.30;99.90;;;;;;4877329;29;20417;-72
2021/12/08 07:07:55;;;;;;;7.27;4.53;;;4.30;99.90;;;;;;4877486;29;20497;-72
2021/12/08 07:10:32;;;;;;;6.90;5.57;;;4.30;99.90;;;;;;4877348;29;20941;-72
2021/12/08 07:13:06;;;;;;;6.53;4.70;;;4.30;99.90;;;;;;4877211;29;20468;-72
2021/12/08 07:15:47;;;;;;;9.00;4.67;;;4.30;99.90;;;;;;4877545;29;20482;-73
2021/12/08 07:18:19;;;;;;;5.80;4.23;;;4.30;99.90;;;;;;4879843;29;20421;-72
2021/12/08 07:20:50;;;;;;;6.13;4.80;;;4.30;99.90;;;;;;4880936;29;20414;-72
2021/12/08 07:23:18;;;;;;;5.20;4.20;;;4.30;99.90;;;;;;4880484;29;20430;-73
2021/12/08 07:25:45;;;;;;;5.70;4.40;;;4.30;99.90;;;;;;4880815;29;20926;-72
2021/12/08 07:28:13;;;;;;;7.77;4.07;;;4.30;99.90;;;;;;4880607;29;20418;-72
2021/12/08 07:30:45;;;;;;;8.60;4.97;;;4.30;99.90;;;;;;4880564;29;20438;-72
2021/12/08 07:33:12;;;;;;;6.27;4.87;;;4.30;99.90;;;;;;4880367;29;20442;-72
2021/12/08 07:35:49;;;;;;;6.03;4.50;;;4.30;99.90;;;;;;4880682;29;20475;-72
2021/12/08 07:38:21;;;;;;;7.33;4.10;;;4.40;99.90;;;;;;4880429;29;20429;-72
2021/12/08 07:41:09;;;;;;;7.83;4.67;;;4.40;99.90;;;;;;4880453;29;20448;-72
2021/12/08 07:43:40;;;;;;;5.10;4.60;;;4.40;99.90;;;;;;4880583;29;20820;-73
2021/12/08 07:46:17;;;;;;;5.73;4.43;;;4.30;99.90;;;;;;4880123;29;20442;-73
2021/12/08 07:48:47;;;;;;;5.20;3.93;;;4.30;99.90;;;;;;4880585;29;20589;-72
2021/12/08 07:51:20;;;;;;;4.83;4.40;;;4.40;99.90;;;;;;4880146;29;20454;-72
2021/12/08 07:53:46;;;;;;;5.50;4.37;;;4.40;99.90;;;;;;4880287;29;20856;-73
2021/12/08 07:56:16;;;;;;;5.37;4.33;;;4.40;99.90;;;;;;4880107;29;20538;-73
2021/12/08 07:58:43;;;;;;;4.47;4.07;;;4.40;99.90;;;;;;4880417;29;20984;-72
2021/12/08 08:01:17;;;;;;;6.23;3.70;;;4.50;99.90;;;;;;4880138;29;20459;-72
2021/12/08 08:03:43;;;;;;;3.60;3.30;;;4.40;99.90;;;;;;4880226;29;20422;-72
2021/12/08 08:06:17;;;;;;;4.60;3.67;;;4.50;99.90;;;;;;4880800;29;20485;-73
2021/12/08 08:08:43;;;;;;;5.13;4.17;;;4.50;99.90;;;;;;4880200;29;20455;-72
2021/12/08 08:11:15;;;;;;;3.87;3.40;;;4.40;99.90;;;;;;4879730;29;20991;-72
2021/12/08 08:13:41;;;;;;;4.63;4.23;;;4.50;99.90;;;;;;4879841;29;20412;-72
2021/12/08 08:16:11;;;;;;;4.37;3.97;;;4.50;99.90;;;;;;4879824;29;20482;-73
2021/12/08 08:18:42;;;;;;;9.87;5.30;;;4.50;99.90;;;;;;4880094;29;20184;-72
2021/12/08 08:21:12;;;;;;;8.17;5.03;;;4.50;99.90;;;;;;4879648;29;20441;-73
2021/12/08 08:23:38;;;;;;;5.97;5.20;;;4.50;99.90;;;;;;4879665;29;20486;-72
2021/12/08 08:26:08;;;;;;;6.90;5.53;;;4.50;99.90;;;;;;4879206;29;20489;-72
2021/12/08 08:28:35;;;;;;;5.50;4.57;;;4.50;99.90;;;;;;4878918;29;20190;-73
2021/12/08 08:31:11;;;;;;;6.27;5.43;;;4.50;99.90;;;;;;4879380;29;21028;-73
2021/12/08 08:33:40;;;;;;;4.00;3.60;;;4.50;99.90;;;;;;4879583;29;20428;-72
2021/12/08 08:36:11;;;;;;;4.53;4.13;;;4.50;99.90;;;;;;4879295;29;20470;-73
2021/12/08 08:38:54;;;;;;;6.50;4.87;;;4.60;99.90;;;;;;4879686;29;20928;-73
2021/12/08 08:41:28;;;;;;;5.27;4.17;;;4.60;99.90;;;;;;4879061;29;20446;-71
2021/12/08 08:43:56;;;;;;;5.83;5.07;;;4.60;99.90;;;;;;4879134;29;20423;-70
2021/12/08 08:46:28;;;;;;;4.20;3.80;;;4.60;99.90;;;;;;4878922;29;20443;-71
2021/12/08 08:48:58;;;;;;;4.30;3.90;;;4.60;99.90;;;;;;4879067;29;20428;-71
2021/12/08 08:51:29;;;;;;;7.17;4.17;;;4.70;99.90;;;;;;4878828;29;20458;-71
2021/12/08 08:54:00;;;;;;;5.40;3.40;;;4.70;99.90;;;;;;4878996;29;20425;-71
2021/12/08 08:56:31;;;;;;;4.55;4.15;;;4.70;99.90;;;;;;4878510;29;20540;-71
2021/12/08 08:59:01;;;;;;;4.33;3.87;;;4.80;99.90;;;;;;4879167;29;20414;-71
2021/12/08 09:01:37;;;;;;;5.10;4.37;;;4.80;99.90;;;;;;4879112;29;21060;-72
2021/12/08 09:04:05;;;;;;;4.53;4.10;;;4.80;99.90;;;;;;4878640;29;20416;-72
2021/12/08 09:06:37;;;;;;;5.47;4.30;;;4.80;99.90;;;;;;4879140;29;20930;-70
2021/12/08 09:09:09;;;;;;;6.00;3.33;;;4.80;99.90;;;;;;4875889;29;20525;-71
2021/12/08 09:11:40;;;;;;;3.13;2.80;;;4.90;99.90;;;;;;4878824;29;20814;-72
2021/12/08 09:14:09;;;;;;;3.30;3.00;;;5.00;99.90;;;;;;4878187;29;20505;-71
2021/12/08 09:16:54;;;;;;;5.33;3.40;;;4.90;99.90;;;;;;4878747;29;20457;-71
2021/12/08 09:19:27;;;;;;;5.93;3.50;;;5.00;99.90;;;;;;4878740;29;20424;-71
2021/12/08 09:22:10;;;;;;;2.80;2.60;;;5.00;99.90;;;;;;4878670;29;20472;-72
2021/12/08 09:24:48;;;;;;;3.67;3.30;;;5.00;99.90;;;;;;4878281;29;20943;-72
2021/12/08 09:27:31;;;;;;;4.63;2.70;;;5.00;99.90;;;;;;4878615;29;20416;-72
2021/12/08 09:30:03;;;;;;;4.53;3.30;;;5.00;99.90;;;;;;4879752;29;20424;-71
2021/12/08 09:32:36;;;;;;;4.37;3.80;;;5.00;99.90;;;;;;4878273;29;20528;-72
2021/12/08 09:35:14;;;;;;;4.00;3.40;;;5.00;99.90;;;;;;4878098;29;20423;-71
2021/12/08 09:37:46;;;;;;;3.53;3.23;;;5.00;99.90;;;;;;4878433;29;20425;-70
2021/12/08 09:40:37;;;;;;;3.77;2.53;;;5.00;99.90;;;;;;4877983;29;20429;-72
2021/12/08 09:43:11;;;;;;;3.00;2.80;;;5.00;99.90;;;;;;4877943;29;20777;-70
2021/12/08 09:45:51;;;;;;;2.77;2.57;;;5.00;99.90;;;;;;4878200;29;20431;-71
2021/12/08 09:48:16;;;;;;;3.60;2.97;;;5.00;99.90;;;;;;4878104;29;20932;-70
2021/12/08 09:50:43;;;;;;;3.40;3.20;;;5.00;99.90;;;;;;4878170;29;20457;-71
2021/12/08 09:53:09;;;;;;;2.50;2.30;;;5.00;99.90;;;;;;4877806;29;20191;-72
2021/12/08 09:55:35;;;;;;;3.03;2.83;;;5.00;99.90;;;;;;4877890;29;20505;-71
2021/12/08 09:58:03;;;;;;;3.33;3.03;;;5.00;99.90;;;;;;4877851;29;20217;-72
2021/12/08 10:00:39;;;;;;;3.63;3.33;;;5.00;99.90;;;;;;4878170;29;20432;-70
2021/12/08 10:03:06;;;;;;;4.00;3.10;;;5.00;99.90;;;;;;4877775;29;20834;-72
2021/12/08 10:05:34;;;;;;;2.67;2.43;;;5.00;99.90;;;;;;4877812;29;20559;-72
2021/12/08 10:08:01;;;;;;;5.80;3.00;;;5.10;99.90;;;;;;4877777;29;20421;-72
2021/12/08 10:10:29;;;;;;;2.30;2.20;;;5.10;99.90;;;;;;4877726;29;21002;-72
2021/12/08 10:12:55;;;;;;;2.77;2.57;;;5.10;99.90;;;;;;4877674;29;20434;-71
2021/12/08 10:15:23;;;;;;;2.70;2.50;;;5.20;99.90;;;;;;4895486;29;20546;-72
2021/12/08 10:17:49;;;;;;;4.43;4.13;;;5.20;99.90;;;;;;4896318;29;20424;-72
2021/12/08 10:20:30;;;;;;;4.27;3.87;;;5.20;99.90;;;;;;4895234;29;20437;-72
2021/12/08 10:23:36;;;;;;;4.33;3.93;;;5.20;99.90;;;;;;4896091;29;20696;-72
2021/12/08 10:26:06;;;;;;;4.07;3.77;;;5.20;99.90;;;;;;4874941;29;20443;-71
2021/12/08 10:28:38;;;;;;;3.10;2.90;;;5.30;99.90;;;;;;4875354;29;20899;-71
2021/12/08 10:31:08;;;;;;;4.83;3.80;;;5.30;99.90;;;;;;4886527;29;20486;-72
2021/12/08 10:34:01;;;;;;;3.57;3.27;;;5.30;99.90;;;;;;4896465;29;20424;-72
2021/12/08 10:39:35;;;;;;;3.10;2.90;;;5.30;99.90;;;;;;4896487;29;20502;-72
2021/12/08 10:42:17;;;;;;;3.27;2.87;;;5.30;99.90;;;;;;4894025;29;20487;-70
2021/12/08 10:44:48;;;;;;;3.27;2.97;;;5.30;99.90;;;;;;4896033;29;20963;-70
2021/12/08 10:47:36;;;;;;;4.10;3.50;;;5.30;99.90;;;;;;4896250;29;20418;-70
2021/12/08 10:55:19;;;;;;;3.50;3.20;;;5.40;99.90;;;;;;4900557;29;20672;-71
2021/12/08 10:57:50;;;;;;;4.63;3.30;;;5.40;99.90;;;;;;4899769;29;20927;-72
2021/12/08 11:00:28;;;;;;;3.37;3.10;;;5.40;99.90;;;;;;4899817;29;20422;-72
2021/12/08 11:03:00;;;;;;;3.90;3.60;;;5.40;99.90;;;;;;4899534;29;20845;-72
2021/12/08 11:05:25;;;;;;;3.43;3.13;;;5.50;99.90;;;;;;4899651;29;20435;-71
2021/12/08 11:08:20;;;;;;;5.10;3.03;;;5.50;99.90;;;;;;4899981;29;20424;-72
2021/12/08 11:10:56;;;;;;;3.77;3.40;;;5.50;99.90;;;;;;4894742;29;20665;-71
2021/12/08 11:13:26;;;;;;;3.60;3.30;;;5.50;99.90;;;;;;4899345;29;20957;-72
2021/12/08 11:16:17;;;;;;;5.17;3.20;;;5.50;99.90;;;;;;4899459;29;20459;-72
2021/12/08 11:18:46;;;;;;;3.43;3.13;;;5.60;99.90;;;;;;4891541;29;20842;-72
2021/12/08 11:21:27;;;;;;;4.40;4.00;;;5.60;99.90;;;;;;4899141;29;20522;-72
2021/12/08 11:23:56;;;;;;;3.90;3.50;;;5.70;99.90;;;;;;4897885;29;20423;-71
2021/12/08 11:26:25;;;;;;;8.00;6.40;;;5.70;99.90;;;;;;4899003;29;20427;-71
2021/12/08 11:29:06;;;;;;;5.27;3.57;;;5.70;99.90;;;;;;4899190;29;20437;-71
2021/12/08 11:31:34;;;;;;;3.50;3.20;;;5.80;99.90;;;;;;4899119;29;20462;-72
2021/12/08 11:34:01;;;;;;;4.00;2.60;;;5.70;99.90;;;;;;4899133;29;20426;-73
2021/12/08 11:36:30;;;;;;;3.67;2.90;;;5.70;99.90;;;;;;4899164;29;20501;-73
2021/12/08 11:38:57;;;;;;;2.80;2.40;;;5.70;99.90;;;;;;4899303;29;20506;-72
2021/12/08 11:41:32;;;;;;;3.20;2.70;;;5.60;99.90;;;;;;4899041;29;20494;-72
2021/12/08 11:43:59;;;;;;;8.53;2.90;;;5.60;99.90;;;;;;4898811;29;20460;-72
2021/12/08 11:46:26;;;;;;;3.03;2.27;;;5.60;99.90;;;;;;4899014;29;20435;-72
2021/12/08 11:49:07;;;;;;;1.73;1.63;;;5.60;99.90;;;;;;4899061;29;20504;-72
2021/12/08 11:52:00;;;;;;;2.90;2.27;;;5.70;99.90;;;;;;4899075;29;20454;-72
2021/12/08 11:54:30;;;;;;;2.67;2.47;;;5.70;99.90;;;;;;4895946;29;20451;-72
2021/12/08 11:57:16;;;;;;;2.67;2.47;;;5.80;99.90;;;;;;4898849;29;20446;-72
2021/12/08 11:59:47;;;;;;;3.13;2.83;;;5.80;99.90;;;;;;4898851;29;20460;-72
2021/12/08 12:02:14;;;;;;;4.10;3.70;;;5.80;99.90;;;;;;4898570;29;20490;-71
2021/12/08 12:04:42;;;;;;;4.50;3.00;;;5.90;99.90;;;;;;4898777;29;20415;-72
2021/12/08 12:07:10;;;;;;;3.47;2.70;;;5.90;99.90;;;;;;4898476;29;20418;-72
2021/12/08 12:09:37;;;;;;;3.20;2.90;;;5.90;99.90;;;;;;4898778;29;20466;-72
2021/12/08 12:12:03;;;;;;;3.30;3.07;;;5.90;99.90;;;;;;4898368;29;20475;-73
2021/12/08 12:14:29;;;;;;;2.40;2.20;;;5.90;99.90;;;;;;4897843;29;20448;-72
2021/12/08 12:16:55;;;;;;;3.30;3.00;;;5.90;99.90;;;;;;4897397;29;20467;-72
2021/12/08 12:19:24;;;;;;;2.47;2.27;;;5.90;99.90;;;;;;4898375;29;20176;-72
2021/12/08 12:22:01;;;;;;;3.20;2.90;;;5.90;99.90;;;;;;4898146;29;20440;-72
2021/12/08 12:24:53;;;;;;;3.20;2.60;;;6.00;99.90;;;;;;4898463;29;20415;-74
2021/12/08 12:27:33;;;;;;;2.33;2.13;;;6.00;99.90;;;;;;4886449;29;20445;-73
2021/12/08 12:30:06;;;;;;;4.63;2.50;;;5.90;99.90;;;;;;4895081;29;20941;-73
2021/12/08 12:32:42;;;;;;;3.07;2.70;;;5.90;99.90;;;;;;4892804;29;20503;-73
2021/12/08 12:35:16;;;;;;;3.37;3.07;;;5.90;99.90;;;;;;4907040;29;20422;-73
2021/12/08 12:37:42;;;;;;;3.37;3.07;;;5.90;99.90;;;;;;4914739;29;20382;-73
2021/12/08 12:40:14;;;;;;;3.23;2.90;;;5.90;99.90;;;;;;4914370;29;20425;-72
2021/12/08 12:42:52;;;;;;;2.70;2.50;;;5.90;99.90;;;;;;4913306;29;20288;-72
2021/12/08 12:45:18;;;;;;;3.13;2.70;;;5.90;99.90;;;;;;4901999;29;20439;-73
2021/12/08 12:48:05;;;;;;;4.87;3.30;;;6.00;99.90;;;;;;4895583;29;20428;-73
2021/12/08 12:50:31;;;;;;;3.90;3.50;;;6.00;99.90;;;;;;4893988;29;20427;-72
2021/12/08 12:52:58;;;;;;;6.70;3.70;;;6.00;99.90;;;;;;4893562;29;20530;-73
2021/12/08 12:55:35;;;;;;;7.47;4.60;;;6.00;99.90;;;;;;4895763;29;20235;-72
2021/12/08 12:58:03;;;;;;;3.50;3.20;;;6.00;99.90;;;;;;4895287;29;20416;-72
2021/12/08 13:00:37;;;;;;;8.70;5.00;;;6.00;99.90;;;;;;4894305;29;20956;-72
2021/12/08 13:03:02;;;;;;;4.27;3.63;;;6.00;99.90;;;;;;4895362;29;20416;-72
2021/12/08 13:06:05;;;;;;;6.40;4.57;;;6.00;99.90;;;;;;4894676;29;20487;-72
2021/12/08 13:08:35;;;;;;;4.93;4.40;;;5.90;99.90;;;;;;4872973;29;20195;-72
2021/12/08 13:11:10;;;;;;;7.30;4.20;;;5.90;99.90;;;;;;4889545;29;20457;-72
2021/12/08 13:13:48;;;;;;;8.10;4.47;;;6.00;99.90;;;;;;4893152;29;20420;-73
2021/12/08 13:16:28;;;;;;;5.20;4.70;;;6.00;99.90;;;;;;4894222;29;20458;-72
2021/12/08 13:18:57;;;;;;;5.97;4.80;;;6.00;99.90;;;;;;4894831;29;20483;-72
2021/12/08 13:21:38;;;;;;;6.83;5.30;;;6.00;99.90;;;;;;4894402;29;20820;-72
2021/12/08 13:24:05;;;;;;;6.60;5.87;;;6.00;99.90;;;;;;4894681;29;20452;-72
2021/12/08 13:26:46;;;;;;;6.33;5.30;;;5.90;99.90;;;;;;4894963;29;20439;-73
2021/12/08 13:29:20;;;;;;;8.73;6.17;;;5.90;99.90;;;;;;4892628;29;20430;-73
2021/12/08 13:32:10;;;;;;;5.33;4.83;;;5.80;99.90;;;;;;4892986;29;20475;-72
2021/12/08 13:34:38;;;;;;;6.70;5.80;;;5.80;99.90;;;;;;4893979;29;20458;-72
2021/12/08 13:37:22;;;;;;;6.73;6.10;;;5.90;99.90;;;;;;4894408;29;20483;-72
2021/12/08 13:39:51;;;;;;;6.40;5.10;;;5.80;99.90;;;;;;4895251;29;20421;-72
2021/12/08 13:42:28;;;;;;;5.50;5.10;;;5.80;99.90;;;;;;4894556;29;20518;-72
2021/12/08 13:45:19;;;;;;;10.10;6.00;;;5.80;99.90;;;;;;4892883;29;20449;-72
2021/12/08 13:47:47;;;;;;;6.87;5.07;;;5.90;99.90;;;;;;4891526;29;20961;-72
2021/12/08 13:50:21;;;;;;;8.07;6.23;;;5.90;99.90;;;;;;4894021;29;20417;-72
2021/12/08 13:53:22;;;;;;;14.27;7.63;;;5.90;99.90;;;;;;4892389;29;20442;-71
2021/12/08 13:55:55;;;;;;;12.17;7.50;;;5.90;99.90;;;;;;4872168;29;20481;-72
2021/12/08 13:58:22;;;;;;;8.60;6.53;;;5.90;99.90;;;;;;4890458;29;20437;-71
2021/12/08 14:00:49;;;;;;;9.10;7.37;;;5.80;99.90;;;;;;4891205;29;20928;-72
2021/12/08 14:03:24;;;;;;;7.80;7.00;;;5.80;99.90;;;;;;4891627;29;20419;-72
2021/12/08 14:05:57;;;;;;;14.57;9.37;;;5.80;99.90;;;;;;4891776;29;20807;-72
2021/12/08 14:08:34;;;;;;;12.90;9.20;;;5.80;99.90;;;;;;4894208;29;20516;-72
2021/12/08 14:11:04;;;;;;;10.43;7.63;;;5.80;99.90;;;;;;4894071;29;20924;-73
2021/12/08 14:13:33;;;;;;;13.83;8.90;;;5.70;99.90;;;;;;4893775;29;20423;-72
2021/12/08 14:16:08;;;;;;;16.17;7.47;;;5.70;99.90;;;;;;4893340;29;20501;-72
2021/12/08 14:18:34;;;;;;;9.83;7.63;;;5.70;99.90;;;;;;4893260;29;20532;-72
2021/12/08 14:21:21;;;;;;;11.43;8.63;;;5.70;99.90;;;;;;4891646;29;20449;-72
2021/12/08 14:23:48;;;;;;;10.07;7.87;;;5.70;99.90;;;;;;4892260;29;20422;-73
2021/12/08 14:26:17;;;;;;;9.43;8.10;;;5.70;99.90;;;;;;4891189;29;20798;-72
2021/12/08 14:28:59;;;;;;;13.40;8.70;;;5.70;99.90;;;;;;4896338;29;20423;-72
2021/12/08 14:31:37;;;;;;;8.77;7.27;;;5.60;99.90;;;;;;4893891;29;21009;-72
2021/12/08 14:34:06;;;;;;;11.33;7.97;;;5.60;99.90;;;;;;4887795;29;20479;-71
2021/12/08 14:36:49;;;;;;;16.03;10.00;;;5.60;99.90;;;;;;4893070;29;20915;-73
2021/12/08 14:39:31;;;;;;;10.47;8.50;;;5.70;99.90;;;;;;4891329;29;20922;-73
2021/12/08 14:42:00;;;;;;;12.00;8.60;;;5.60;99.90;;;;;;4894774;29;20445;-72
2021/12/08 14:44:29;;;;;;;10.53;8.83;;;5.60;99.90;;;;;;4890643;29;20477;-72
2021/12/08 14:47:16;;;;;;;11.90;10.30;;;5.60;99.90;;;;;;4891990;29;20904;-72
2021/12/08 14:49:51;;;;;;;11.03;9.13;;;5.50;99.90;;;;;;4894601;29;20421;-73
2021/12/08 14:52:17;;;;;;;16.43;10.33;;;5.50;99.90;;;;;;4888736;29;20427;-73
2021/12/08 14:54:46;;;;;;;14.10;10.13;;;5.50;99.90;;;;;;4892633;29;20410;-71
2021/12/08 14:57:18;;;;;;;10.03;9.00;;;5.50;99.90;;;;;;4893533;29;21076;-73
2021/12/08 14:59:54;;;;;;;10.53;8.97;;;5.40;99.90;;;;;;4894642;29;20435;-72
2021/12/08 15:02:32;;;;;;;11.13;8.50;;;5.40;99.90;;;;;;4893539;29;20565;-73
2021/12/08 15:05:01;;;;;;;13.30;9.63;;;5.50;99.90;;;;;;4892672;29;20516;-73
2021/12/08 15:07:28;;;;;;;13.80;9.13;;;5.50;99.90;;;;;;4894524;29;20434;-72
2021/12/08 15:10:04;;;;;;;14.37;8.40;;;5.50;99.90;;;;;;4894327;29;20423;-72
2021/12/08 15:12:30;;;;;;;11.20;9.40;;;5.50;99.90;;;;;;4892957;29;20476;-72
2021/12/08 15:14:56;;;;;;;11.77;8.67;;;5.40;99.90;;;;;;4894856;29;20817;-72
2021/12/08 15:17:32;;;;;;;10.93;8.87;;;5.40;99.90;;;;;;4893253;29;20479;-73
2021/12/08 15:19:59;;;;;;;17.27;9.60;;;5.40;99.90;;;;;;4891382;29;20173;-73
2021/12/08 15:22:40;;;;;;;16.53;9.47;;;5.40;99.90;;;;;;4891085;29;20446;-72
2021/12/08 15:25:11;;;;;;;11.67;8.17;;;5.40;99.90;;;;;;4894059;29;20926;-72
2021/12/08 15:27:38;;;;;;;14.60;8.47;;;5.40;99.90;;;;;;4895298;29;20960;-72
2021/12/08 15:30:09;;;;;;;11.57;8.73;;;5.40;99.90;;;;;;4894250;29;20830;-72
2021/12/08 15:32:35;;;;;;;13.80;8.03;;;5.50;99.90;;;;;;4894007;29;20505;-72
2021/12/08 15:35:06;;;;;;;9.73;7.43;;;5.40;99.90;;;;;;4896086;29;20468;-72
2021/12/08 15:37:33;;;;;;;8.90;7.37;;;5.30;99.90;;;;;;4896493;29;20210;-73
2021/12/08 15:39:59;;;;;;;10.13;7.20;;;5.30;99.90;;;;;;4896004;29;20429;-73
2021/12/08 15:42:32;;;;;;;10.40;7.90;;;5.30;99.90;;;;;;4893985;29;20462;-73
2021/12/08 15:45:06;;;;;;;13.50;8.33;;;5.20;99.90;;;;;;4884826;29;20423;-72
2021/12/08 15:47:44;;;;;;;11.60;7.97;;;5.20;99.90;;;;;;4897676;29;20426;-74
2021/12/08 15:50:21;;;;;;;9.90;7.87;;;5.20;99.90;;;;;;4897200;29;20422;-74
2021/12/08 15:52:58;;;;;;;9.70;7.80;;;5.20;99.90;;;;;;4898397;29;20952;-75
2021/12/08 15:55:30;;;;;;;8.47;7.67;;;5.20;99.90;;;;;;4898341;29;20935;-76
2021/12/08 15:58:07;;;;;;;9.10;7.17;;;5.10;99.90;;;;;;4898510;29;20939;-76
2021/12/08 16:00:40;;;;;;;10.50;7.30;;;5.10;99.90;;;;;;4898741;29;20832;-76
2021/12/08 16:03:06;;;;;;;10.87;7.77;;;5.10;99.90;;;;;;4898268;29;20458;-76
2021/12/08 16:05:32;;;;;;;10.37;7.93;;;5.20;99.90;;;;;;4898585;29;20418;-78
2021/12/08 16:07:59;;;;;;;8.30;7.07;;;5.10;99.90;;;;;;4898615;29;20917;-77
2021/12/08 16:10:30;;;;;;;7.17;6.30;;;5.10;99.90;;;;;;4898379;29;20190;-77
2021/12/08 16:13:14;;;;;;;8.33;7.40;;;5.00;99.90;;;;;;4898292;29;20421;-76
2021/12/08 16:15:50;;;;;;;8.63;5.20;;;4.90;99.90;;;;;;4898242;29;20502;-77
2021/12/08 16:18:25;;;;;;;9.27;6.47;;;4.90;99.90;;;;;;4898310;29;20465;-76
2021/12/08 16:20:52;;;;;;;6.47;5.23;;;4.90;99.90;;;;;;4896706;29;20436;-76
2021/12/08 16:23:17;;;;;;;7.37;6.50;;;4.90;99.90;;;;;;4897826;29;20462;-75
2021/12/08 16:25:43;;;;;;;8.20;7.30;;;4.80;99.90;;;;;;4898229;29;20848;-75
2021/12/08 16:28:10;;;;;;;11.87;7.20;;;4.80;99.90;;;;;;4897883;29;20716;-76
2021/12/08 16:30:37;;;;;;;9.00;6.90;;;4.80;99.90;;;;;;4897918;29;20739;-76
2021/12/08 16:33:04;;;;;;;10.20;8.53;;;4.80;99.90;;;;;;4897622;29;20439;-76
2021/12/08 16:35:30;;;;;;;12.37;9.20;;;4.80;99.90;;;;;;4897800;29;20429;-76
2021/12/08 16:37:58;;;;;;;9.97;8.10;;;4.80;99.90;;;;;;4898026;29;20420;-77
2021/12/08 16:43:08;;;;;;;12.03;6.50;;;4.80;99.90;;;;;;4897552;29;20422;-76
2021/12/08 16:45:38;;;;;;;11.20;8.30;;;4.70;99.90;;;;;;4897788;29;20955;-77
2021/12/08 16:48:07;;;;;;;12.03;8.97;;;4.70;99.90;;;;;;4897706;29;20405;-76
2021/12/08 16:50:34;;;;;;;13.43;9.60;;;4.70;99.90;;;;;;4895979;29;20429;-76
2021/12/08 16:53:01;;;;;;;10.83;8.27;;;4.70;99.90;;;;;;4895070;29;21039;-76
2021/12/08 16:55:28;;;;;;;20.60;10.20;;;4.70;99.90;;;;;;4897490;29;20427;-77
2021/12/08 16:57:57;;;;;;;15.00;9.90;;;4.70;99.90;;;;;;4897783;29;20418;-76
2021/12/08 17:00:26;;;;;;;10.93;8.47;;;4.70;99.90;;;;;;4894910;29;20477;-77
2021/12/08 17:02:52;;;;;;;10.60;7.97;;;4.70;99.90;;;;;;4897211;29;20537;-76
2021/12/08 17:05:19;;;;;;;13.63;6.67;;;4.60;99.90;;;;;;4897507;29;20438;-77
2021/12/08 17:07:46;;;;;;;16.33;10.00;;;4.60;99.90;;;;;;4897481;29;20435;-77
2021/12/08 17:10:13;;;;;;;16.77;9.90;;;4.60;99.90;;;;;;4896830;29;20418;-74
2021/12/08 17:12:39;;;;;;;13.73;9.60;;;4.60;99.90;;;;;;4897123;29;20913;-74
2021/12/08 17:15:07;;;;;;;11.60;9.00;;;4.60;99.90;;;;;;4897221;29;20426;-75
2021/12/08 17:17:33;;;;;;;12.50;6.50;;;4.60;99.90;;;;;;4897193;29;20274;-75
2021/12/08 17:19:59;;;;;;;8.37;5.67;;;4.60;99.90;;;;;;4895985;29;20509;-75
2021/12/08 17:22:24;;;;;;;9.40;6.50;;;4.60;99.90;;;;;;4896948;29;20697;-75
2021/12/08 17:24:50;;;;;;;23.90;14.23;;;4.60;99.90;;;;;;4895640;29;20200;-74
2021/12/08 17:27:17;;;;;;;17.63;11.80;;;4.60;99.90;;;;;;4893744;29;20202;-74
2021/12/08 17:29:43;;;;;;;8.13;6.87;;;4.60;99.90;;;;;;4895651;29;20438;-74
2021/12/08 17:32:09;;;;;;;8.13;6.80;;;4.70;99.90;;;;;;4896577;29;20476;-75
2021/12/08 17:34:35;;;;;;;15.10;11.60;;;4.70;99.90;;;;;;4895523;29;20423;-73
2021/12/08 17:37:01;;;;;;;12.73;9.60;;;4.70;99.90;;;;;;4897513;29;20265;-75
2021/12/08 17:39:27;;;;;;;16.00;9.80;;;4.70;99.90;;;;;;4897541;29;20806;-74
2021/12/08 17:41:55;;;;;;;17.87;10.87;;;4.70;99.90;;;;;;4896885;29;20465;-74
2021/12/08 17:44:23;;;;;;;11.37;8.27;;;4.60;99.90;;;;;;4896106;29;20429;-74
2021/12/08 17:46:50;;;;;;;9.60;6.70;;;4.60;99.90;;;;;;4896514;29;20421;-74
2021/12/08 17:49:17;;;;;;;10.40;6.73;;;4.60;99.90;;;;;;4896550;29;20466;-74
2021/12/08 17:51:43;;;;;;;10.73;7.20;;;4.60;99.90;;;;;;4897080;29;20445;-73
2021/12/08 17:54:10;;;;;;;12.00;7.47;;;4.60;99.90;;;;;;4895960;29;20485;-74
2021/12/08 17:56:39;;;;;;;10.27;8.03;;;4.60;99.90;;;;;;4895707;29;20472;-73
2021/12/08 17:59:06;;;;;;;11.50;8.70;;;4.60;99.90;;;;;;4878478;29;20533;-74
2021/12/08 18:01:34;;;;;;;9.80;7.17;;;4.60;99.90;;;;;;4878376;29;20442;-73
2021/12/08 18:04:00;;;;;;;16.80;7.73;;;4.50;99.90;;;;;;4876919;29;20404;-73
2021/12/08 18:06:29;;;;;;;10.67;7.03;;;4.50;99.90;;;;;;4875422;29;20485;-74